Terminal Aerodrome Forecast
Issued by NWS Jackson, MS

Home | Current Version | Previous Version | Text Only | Print | Product List | Glossary On
Versions: 1 2 3 4 5 6 7 8 9 10 11 12 13 14 15 16 17
704
FTUS44 KJAN 020558
TAFHBG
TAF
KHBG 020558Z 0206/0306 VRB05KT 5SM BR OVC005
     FM020900 VRB05KT 3SM BR OVC003
     FM021500 VRB05KT P6SM VCSH OVC015
     FM021800 18008KT P6SM -SHRA VCTS SCT025 OVC050CB
     FM022200 25010KT 4SM -SHRA VCTS OVC025CB
     FM030300 34005KT P6SM -RA OVC035=

USA.gov is the U.S. government's official web portal to all federal, state and local government web resources and services.